OISF  Fasa Airport

Add Bookmark

Fasa, Iran

Status IATA
Operational FAZ
Latitude Longitude
28° 53' 30" N 53° 43' 23" E
28.891800 53.723301
Local (DST + 5) UTC (GMT + 4)
Aug 1, 2014 02:07 Jul 31, 2014 21:37
Sunrise-Sunset Local UTC
Begin Civil Twilight 05:49 01:19
Sunrise 06:14 01:44
Sunset 07:47 15:17
End Civil Twilight 08:13 15:43

Current Weather

METAR Observed VFR
OISF 311855Z 00000KT CAVOK 30/07 Q1006 Thu, Jul 31, 2014 @ 18:55 UTC
(2 Hours, 42 Minutes ago)
Visual Flight Rules

Decoded METAR

Wind Visibility Clouds Conditions
Calm 10 km or more
  • Clear skies
  • No significant weather
Temperatures Readings Precipitation
Current Temp 30°C (86°F)
Dewpoint 7°C (45°F)
Humidity 24%
Altimeter 29.7"Hg
Sea Level Pressure 1006mb
Field Elevation 4537.4'
None Recorded

Additional weather within a 185.2km radius of OISF

Map ICAO Location
OISS 131.3km W (303°)
OISL 149.8km S (154°)
OISR 176.7km S (197°)
OIBJ 179.3km S (229°)

24 Hour Weather History

Loading
-

24 Hour Weather Graphs

Loading
-

CheckWX.com is intended as a tool to help pilots better visualize weather data. It is not intended as a substitute for an official weather briefing obtained from a Flight Service Station. CheckWX.com does not meet the FAA requirements for an official pre-flight weather briefing. Therefore, it's important that pilots still call and obtain an official FSS pre-flight weather briefing.